sensor_id;sensor_type;location;lat;lon;timestamp;P1;durP1;ratioP1;P2;durP2;ratioP2
44428;SDS011;30134;47.866;-4.222;2022-07-22T00:01:36;13.02;;;11.07;;
44428;SDS011;30134;47.866;-4.222;2022-07-22T00:04:02;16.88;;;10.55;;
44428;SDS011;30134;47.866;-4.222;2022-07-22T00:06:35;11.70;;;9.90;;
44428;SDS011;30134;47.866;-4.222;2022-07-22T00:09:02;12.82;;;10.25;;
44428;SDS011;30134;47.866;-4.222;2022-07-22T00:11:35;11.10;;;9.50;;
44428;SDS011;30134;47.866;-4.222;2022-07-22T00:14:01;10.45;;;9.35;;
44428;SDS011;30134;47.866;-4.222;2022-07-22T00:16:28;10.82;;;9.02;;
44428;SDS011;30134;47.866;-4.222;2022-07-22T00:18:54;9.82;;;8.60;;
44428;SDS011;30134;47.866;-4.222;2022-07-22T00:21:20;11.18;;;8.80;;
44428;SDS011;30134;47.866;-4.222;2022-07-22T00:23:46;9.60;;;8.43;;
44428;SDS011;30134;47.866;-4.222;2022-07-22T00:26:12;10.40;;;8.27;;
44428;SDS011;30134;47.866;-4.222;2022-07-22T00:28:38;9.35;;;8.18;;
44428;SDS011;30134;47.866;-4.222;2022-07-22T00:31:04;9.27;;;7.20;;
44428;SDS011;30134;47.866;-4.222;2022-07-22T00:33:31;8.35;;;7.35;;
44428;SDS011;30134;47.866;-4.222;2022-07-22T00:35:57;8.20;;;7.32;;
44428;SDS011;30134;47.866;-4.222;2022-07-22T00:38:23;8.13;;;7.10;;
44428;SDS011;30134;47.866;-4.222;2022-07-22T00:40:49;8.43;;;6.60;;
44428;SDS011;30134;47.866;-4.222;2022-07-22T00:43:15;9.80;;;7.00;;
44428;SDS011;30134;47.866;-4.222;2022-07-22T00:45:41;8.43;;;6.97;;
44428;SDS011;30134;47.866;-4.222;2022-07-22T00:48:07;7.68;;;6.45;;
44428;SDS011;30134;47.866;-4.222;2022-07-22T00:50:33;8.57;;;6.40;;
44428;SDS011;30134;47.866;-4.222;2022-07-22T00:53:00;6.55;;;5.80;;
44428;SDS011;30134;47.866;-4.222;2022-07-22T00:55:27;8.10;;;6.22;;
44428;SDS011;30134;47.866;-4.222;2022-07-22T00:57:54;6.40;;;5.57;;
44428;SDS011;30134;47.866;-4.222;2022-07-22T01:00:20;7.03;;;5.82;;
44428;SDS011;30134;47.866;-4.222;2022-07-22T01:02:47;6.40;;;5.53;;
44428;SDS011;30134;47.866;-4.222;2022-07-22T01:05:15;5.60;;;4.82;;
44428;SDS011;30134;47.866;-4.222;2022-07-22T01:07:49;5.60;;;4.85;;
44428;SDS011;30134;47.866;-4.222;2022-07-22T01:10:15;5.82;;;5.03;;
44428;SDS011;30134;47.866;-4.222;2022-07-22T01:12:42;5.03;;;4.30;;
44428;SDS011;30134;47.866;-4.222;2022-07-22T01:15:08;6.43;;;4.70;;
44428;SDS011;30134;47.866;-4.222;2022-07-22T01:17:34;5.53;;;4.60;;
44428;SDS011;30134;47.866;-4.222;2022-07-22T01:20:01;6.53;;;4.57;;
44428;SDS011;30134;47.866;-4.222;2022-07-22T01:22:30;5.13;;;4.57;;
44428;SDS011;30134;47.866;-4.222;2022-07-22T01:24:57;4.53;;;3.85;;
44428;SDS011;30134;47.866;-4.222;2022-07-22T01:27:23;4.38;;;3.80;;
44428;SDS011;30134;47.866;-4.222;2022-07-22T01:29:49;4.53;;;4.03;;
44428;SDS011;30134;47.866;-4.222;2022-07-22T01:32:15;3.97;;;3.53;;
44428;SDS011;30134;47.866;-4.222;2022-07-22T01:34:41;4.45;;;3.65;;
44428;SDS011;30134;47.866;-4.222;2022-07-22T01:37:08;5.50;;;3.53;;
44428;SDS011;30134;47.866;-4.222;2022-07-22T01:39:35;4.07;;;3.28;;
44428;SDS011;30134;47.866;-4.222;2022-07-22T01:42:01;3.97;;;3.58;;
44428;SDS011;30134;47.866;-4.222;2022-07-22T01:44:27;3.83;;;3.15;;
44428;SDS011;30134;47.866;-4.222;2022-07-22T01:46:56;3.55;;;2.83;;
44428;SDS011;30134;47.866;-4.222;2022-07-22T01:49:23;4.00;;;3.47;;
44428;SDS011;30134;47.866;-4.222;2022-07-22T01:51:50;3.38;;;3.08;;
44428;SDS011;30134;47.866;-4.222;2022-07-22T01:54:16;5.93;;;2.90;;
44428;SDS011;30134;47.866;-4.222;2022-07-22T01:56:42;3.92;;;2.85;;
44428;SDS011;30134;47.866;-4.222;2022-07-22T01:59:07;3.17;;;2.50;;
44428;SDS011;30134;47.866;-4.222;2022-07-22T02:01:33;3.45;;;2.67;;
44428;SDS011;30134;47.866;-4.222;2022-07-22T02:04:00;3.38;;;2.50;;
44428;SDS011;30134;47.866;-4.222;2022-07-22T02:06:26;3.60;;;2.60;;
44428;SDS011;30134;47.866;-4.222;2022-07-22T02:08:58;2.78;;;2.28;;
44428;SDS011;30134;47.866;-4.222;2022-07-22T02:11:24;2.80;;;2.25;;
44428;SDS011;30134;47.866;-4.222;2022-07-22T02:13:50;2.63;;;2.30;;
44428;SDS011;30134;47.866;-4.222;2022-07-22T02:16:16;3.38;;;2.33;;
44428;SDS011;30134;47.866;-4.222;2022-07-22T02:18:42;2.95;;;2.15;;
44428;SDS011;30134;47.866;-4.222;2022-07-22T02:21:08;3.63;;;2.20;;
44428;SDS011;30134;47.866;-4.222;2022-07-22T02:23:34;3.17;;;2.42;;
44428;SDS011;30134;47.866;-4.222;2022-07-22T02:26:00;2.25;;;2.00;;
44428;SDS011;30134;47.866;-4.222;2022-07-22T02:28:27;2.83;;;2.28;;
44428;SDS011;30134;47.866;-4.222;2022-07-22T02:30:53;2.92;;;2.10;;
44428;SDS011;30134;47.866;-4.222;2022-07-22T02:33:19;2.53;;;2.00;;
44428;SDS011;30134;47.866;-4.222;2022-07-22T02:35:45;2.60;;;1.83;;
44428;SDS011;30134;47.866;-4.222;2022-07-22T02:38:11;2.58;;;2.00;;
44428;SDS011;30134;47.866;-4.222;2022-07-22T02:40:38;2.40;;;2.05;;
44428;SDS011;30134;47.866;-4.222;2022-07-22T02:43:04;2.72;;;1.88;;
44428;SDS011;30134;47.866;-4.222;2022-07-22T02:45:31;2.05;;;1.88;;
44428;SDS011;30134;47.866;-4.222;2022-07-22T02:47:58;2.25;;;1.85;;
44428;SDS011;30134;47.866;-4.222;2022-07-22T02:50:24;2.05;;;1.80;;
44428;SDS011;30134;47.866;-4.222;2022-07-22T02:52:51;2.45;;;2.10;;
44428;SDS011;30134;47.866;-4.222;2022-07-22T02:55:18;2.85;;;2.13;;
44428;SDS011;30134;47.866;-4.222;2022-07-22T02:57:44;2.30;;;1.75;;
44428;SDS011;30134;47.866;-4.222;2022-07-22T03:00:11;2.25;;;1.70;;
44428;SDS011;30134;47.866;-4.222;2022-07-22T03:02:41;4.68;;;1.92;;
44428;SDS011;30134;47.866;-4.222;2022-07-22T03:05:07;3.78;;;1.60;;
44428;SDS011;30134;47.866;-4.222;2022-07-22T03:07:33;2.20;;;1.65;;
44428;SDS011;30134;47.866;-4.222;2022-07-22T03:10:07;1.83;;;1.50;;
44428;SDS011;30134;47.866;-4.222;2022-07-22T03:12:33;2.35;;;1.65;;
44428;SDS011;30134;47.866;-4.222;2022-07-22T03:14:59;2.13;;;1.60;;
44428;SDS011;30134;47.866;-4.222;2022-07-22T03:17:25;2.80;;;1.88;;
44428;SDS011;30134;47.866;-4.222;2022-07-22T03:19:51;2.17;;;1.63;;
44428;SDS011;30134;47.866;-4.222;2022-07-22T03:22:18;1.67;;;1.58;;
44428;SDS011;30134;47.866;-4.222;2022-07-22T03:24:44;1.73;;;1.40;;
44428;SDS011;30134;47.866;-4.222;2022-07-22T03:27:09;2.13;;;1.58;;
44428;SDS011;30134;47.866;-4.222;2022-07-22T03:29:36;1.60;;;1.50;;
44428;SDS011;30134;47.866;-4.222;2022-07-22T03:32:02;1.48;;;1.38;;
44428;SDS011;30134;47.866;-4.222;2022-07-22T03:34:28;1.80;;;1.58;;
44428;SDS011;30134;47.866;-4.222;2022-07-22T03:36:54;1.98;;;1.50;;
44428;SDS011;30134;47.866;-4.222;2022-07-22T03:39:20;1.65;;;1.48;;
44428;SDS011;30134;47.866;-4.222;2022-07-22T03:41:46;2.00;;;1.45;;
44428;SDS011;30134;47.866;-4.222;2022-07-22T03:44:12;2.10;;;1.40;;
44428;SDS011;30134;47.866;-4.222;2022-07-22T03:46:38;2.25;;;1.60;;
44428;SDS011;30134;47.866;-4.222;2022-07-22T03:49:03;2.20;;;1.30;;
44428;SDS011;30134;47.866;-4.222;2022-07-22T03:51:29;1.73;;;1.58;;
44428;SDS011;30134;47.866;-4.222;2022-07-22T03:53:55;1.75;;;1.50;;
44428;SDS011;30134;47.866;-4.222;2022-07-22T03:56:21;1.70;;;1.50;;
44428;SDS011;30134;47.866;-4.222;2022-07-22T03:58:47;1.40;;;1.25;;
44428;SDS011;30134;47.866;-4.222;2022-07-22T04:01:13;3.10;;;1.52;;
44428;SDS011;30134;47.866;-4.222;2022-07-22T04:03:39;1.73;;;1.23;;
44428;SDS011;30134;47.866;-4.222;2022-07-22T04:06:05;2.50;;;1.67;;
44428;SDS011;30134;47.866;-4.222;2022-07-22T04:08:31;1.85;;;1.30;;
44428;SDS011;30134;47.866;-4.222;2022-07-22T04:11:04;2.42;;;1.40;;
44428;SDS011;30134;47.866;-4.222;2022-07-22T04:13:30;2.22;;;1.83;;
44428;SDS011;30134;47.866;-4.222;2022-07-22T04:15:56;2.30;;;1.38;;
44428;SDS011;30134;47.866;-4.222;2022-07-22T04:18:22;2.78;;;1.42;;
44428;SDS011;30134;47.866;-4.222;2022-07-22T04:20:48;2.05;;;1.50;;
44428;SDS011;30134;47.866;-4.222;2022-07-22T04:23:14;2.25;;;1.30;;
44428;SDS011;30134;47.866;-4.222;2022-07-22T04:25:40;1.55;;;1.42;;
44428;SDS011;30134;47.866;-4.222;2022-07-22T04:28:06;2.10;;;1.30;;
44428;SDS011;30134;47.866;-4.222;2022-07-22T04:30:32;1.90;;;1.23;;
44428;SDS011;30134;47.866;-4.222;2022-07-22T04:32:59;1.67;;;1.20;;
44428;SDS011;30134;47.866;-4.222;2022-07-22T04:35:24;1.88;;;1.40;;
44428;SDS011;30134;47.866;-4.222;2022-07-22T04:37:51;1.45;;;1.10;;
44428;SDS011;30134;47.866;-4.222;2022-07-22T04:40:17;1.10;;;0.90;;
44428;SDS011;30134;47.866;-4.222;2022-07-22T04:42:43;1.48;;;1.20;;
44428;SDS011;30134;47.866;-4.222;2022-07-22T04:45:10;1.23;;;1.13;;
44428;SDS011;30134;47.866;-4.222;2022-07-22T04:47:36;1.88;;;1.45;;
44428;SDS011;30134;47.866;-4.222;2022-07-22T04:50:02;1.55;;;1.33;;
44428;SDS011;30134;47.866;-4.222;2022-07-22T04:52:29;2.05;;;1.30;;
44428;SDS011;30134;47.866;-4.222;2022-07-22T04:54:55;2.25;;;1.48;;
44428;SDS011;30134;47.866;-4.222;2022-07-22T04:57:23;3.65;;;1.85;;
44428;SDS011;30134;47.866;-4.222;2022-07-22T04:59:51;2.28;;;1.50;;
44428;SDS011;30134;47.866;-4.222;2022-07-22T05:02:26;1.50;;;1.30;;
44428;SDS011;30134;47.866;-4.222;2022-07-22T05:04:51;1.33;;;1.23;;
44428;SDS011;30134;47.866;-4.222;2022-07-22T05:07:17;1.48;;;1.30;;
44428;SDS011;30134;47.866;-4.222;2022-07-22T05:09:43;1.63;;;1.15;;
44428;SDS011;30134;47.866;-4.222;2022-07-22T05:12:15;2.53;;;1.40;;
44428;SDS011;30134;47.866;-4.222;2022-07-22T05:14:41;1.80;;;1.38;;
44428;SDS011;30134;47.866;-4.222;2022-07-22T05:17:11;3.05;;;1.92;;
44428;SDS011;30134;47.866;-4.222;2022-07-22T05:19:38;1.65;;;1.20;;
44428;SDS011;30134;47.866;-4.222;2022-07-22T05:22:05;3.08;;;1.50;;
44428;SDS011;30134;47.866;-4.222;2022-07-22T05:24:32;1.33;;;1.20;;
44428;SDS011;30134;47.866;-4.222;2022-07-22T05:26:58;1.60;;;1.33;;
44428;SDS011;30134;47.866;-4.222;2022-07-22T05:29:24;2.60;;;1.50;;
44428;SDS011;30134;47.866;-4.222;2022-07-22T05:31:50;1.80;;;1.20;;
44428;SDS011;30134;47.866;-4.222;2022-07-22T05:34:16;2.17;;;1.30;;
44428;SDS011;30134;47.866;-4.222;2022-07-22T05:36:42;1.80;;;1.40;;
44428;SDS011;30134;47.866;-4.222;2022-07-22T05:39:08;2.00;;;1.42;;
44428;SDS011;30134;47.866;-4.222;2022-07-22T05:41:34;1.70;;;1.20;;
44428;SDS011;30134;47.866;-4.222;2022-07-22T05:44:00;2.20;;;1.45;;
44428;SDS011;30134;47.866;-4.222;2022-07-22T05:46:26;2.08;;;1.67;;
44428;SDS011;30134;47.866;-4.222;2022-07-22T05:48:52;3.50;;;1.50;;
44428;SDS011;30134;47.866;-4.222;2022-07-22T05:51:19;2.55;;;1.48;;
44428;SDS011;30134;47.866;-4.222;2022-07-22T05:53:46;4.22;;;1.50;;
44428;SDS011;30134;47.866;-4.222;2022-07-22T05:56:12;2.67;;;1.70;;
44428;SDS011;30134;47.866;-4.222;2022-07-22T05:58:39;2.22;;;1.50;;
44428;SDS011;30134;47.866;-4.222;2022-07-22T06:01:06;4.63;;;1.50;;
44428;SDS011;30134;47.866;-4.222;2022-07-22T06:03:34;3.80;;;1.63;;
44428;SDS011;30134;47.866;-4.222;2022-07-22T06:06:00;2.72;;;1.73;;
44428;SDS011;30134;47.866;-4.222;2022-07-22T06:08:29;1.58;;;1.48;;
44428;SDS011;30134;47.866;-4.222;2022-07-22T06:10:57;3.40;;;1.50;;
44428;SDS011;30134;47.866;-4.222;2022-07-22T06:13:30;1.90;;;1.45;;
44428;SDS011;30134;47.866;-4.222;2022-07-22T06:15:57;1.75;;;1.38;;
44428;SDS011;30134;47.866;-4.222;2022-07-22T06:18:23;2.17;;;1.48;;
44428;SDS011;30134;47.866;-4.222;2022-07-22T06:20:50;3.88;;;1.65;;
44428;SDS011;30134;47.866;-4.222;2022-07-22T06:23:16;2.28;;;1.80;;
44428;SDS011;30134;47.866;-4.222;2022-07-22T06:25:42;2.95;;;1.42;;
44428;SDS011;30134;47.866;-4.222;2022-07-22T06:28:09;2.42;;;1.70;;
44428;SDS011;30134;47.866;-4.222;2022-07-22T06:30:36;1.95;;;1.50;;
44428;SDS011;30134;47.866;-4.222;2022-07-22T06:33:04;1.60;;;1.20;;
44428;SDS011;30134;47.866;-4.222;2022-07-22T06:35:30;2.30;;;1.60;;
44428;SDS011;30134;47.866;-4.222;2022-07-22T06:37:55;3.08;;;1.75;;
44428;SDS011;30134;47.866;-4.222;2022-07-22T06:40:21;2.03;;;1.40;;
44428;SDS011;30134;47.866;-4.222;2022-07-22T06:42:47;3.60;;;1.50;;
44428;SDS011;30134;47.866;-4.222;2022-07-22T06:45:13;1.95;;;1.40;;
44428;SDS011;30134;47.866;-4.222;2022-07-22T06:47:39;2.13;;;1.20;;
44428;SDS011;30134;47.866;-4.222;2022-07-22T06:50:06;2.00;;;1.60;;
44428;SDS011;30134;47.866;-4.222;2022-07-22T06:52:35;2.80;;;1.42;;
44428;SDS011;30134;47.866;-4.222;2022-07-22T06:55:05;2.33;;;1.30;;
44428;SDS011;30134;47.866;-4.222;2022-07-22T06:57:33;2.03;;;1.52;;
44428;SDS011;30134;47.866;-4.222;2022-07-22T06:59:59;2.45;;;1.33;;
44428;SDS011;30134;47.866;-4.222;2022-07-22T07:02:25;1.98;;;1.40;;
44428;SDS011;30134;47.866;-4.222;2022-07-22T07:04:51;2.08;;;1.48;;
44428;SDS011;30134;47.866;-4.222;2022-07-22T07:07:18;2.55;;;1.20;;
44428;SDS011;30134;47.866;-4.222;2022-07-22T07:09:44;1.90;;;1.20;;
44428;SDS011;30134;47.866;-4.222;2022-07-22T07:12:11;133.40;;;95.32;;
44428;SDS011;30134;47.866;-4.222;2022-07-22T07:14:43;113.30;;;83.70;;
44428;SDS011;30134;47.866;-4.222;2022-07-22T07:17:09;70.18;;;53.97;;
44428;SDS011;30134;47.866;-4.222;2022-07-22T07:19:35;39.60;;;29.00;;
44428;SDS011;30134;47.866;-4.222;2022-07-22T07:22:01;25.05;;;18.55;;
44428;SDS011;30134;47.866;-4.222;2022-07-22T07:24:27;16.05;;;10.68;;
44428;SDS011;30134;47.866;-4.222;2022-07-22T07:26:53;15.45;;;10.00;;
44428;SDS011;30134;47.866;-4.222;2022-07-22T07:29:19;16.25;;;10.15;;
44428;SDS011;30134;47.866;-4.222;2022-07-22T07:31:45;16.75;;;6.97;;
44428;SDS011;30134;47.866;-4.222;2022-07-22T07:34:11;8.68;;;5.25;;
44428;SDS011;30134;47.866;-4.222;2022-07-22T07:36:37;7.88;;;4.35;;
44428;SDS011;30134;47.866;-4.222;2022-07-22T07:39:03;11.75;;;6.13;;
44428;SDS011;30134;47.866;-4.222;2022-07-22T07:41:29;11.20;;;5.13;;
44428;SDS011;30134;47.866;-4.222;2022-07-22T07:43:54;33.92;;;20.00;;
44428;SDS011;30134;47.866;-4.222;2022-07-22T07:46:24;67.38;;;44.65;;
44428;SDS011;30134;47.866;-4.222;2022-07-22T07:48:50;52.65;;;36.55;;
44428;SDS011;30134;47.866;-4.222;2022-07-22T07:51:16;37.78;;;26.90;;
44428;SDS011;30134;47.866;-4.222;2022-07-22T07:53:42;30.77;;;20.50;;
44428;SDS011;30134;47.866;-4.222;2022-07-22T07:56:08;29.48;;;18.02;;
44428;SDS011;30134;47.866;-4.222;2022-07-22T07:58:34;22.38;;;15.93;;
44428;SDS011;30134;47.866;-4.222;2022-07-22T08:01:00;21.52;;;13.60;;
44428;SDS011;30134;47.866;-4.222;2022-07-22T08:03:26;18.08;;;11.80;;
44428;SDS011;30134;47.866;-4.222;2022-07-22T08:05:53;16.80;;;10.77;;
44428;SDS011;30134;47.866;-4.222;2022-07-22T08:08:19;12.68;;;8.10;;
44428;SDS011;30134;47.866;-4.222;2022-07-22T08:10:45;12.43;;;7.72;;
44428;SDS011;30134;47.866;-4.222;2022-07-22T08:13:11;11.90;;;5.95;;
44428;SDS011;30134;47.866;-4.222;2022-07-22T08:15:43;10.27;;;5.15;;
44428;SDS011;30134;47.866;-4.222;2022-07-22T08:18:10;10.27;;;4.55;;
44428;SDS011;30134;47.866;-4.222;2022-07-22T08:20:36;8.73;;;3.58;;
44428;SDS011;30134;47.866;-4.222;2022-07-22T08:23:02;6.75;;;3.40;;
44428;SDS011;30134;47.866;-4.222;2022-07-22T08:25:29;5.68;;;2.97;;
44428;SDS011;30134;47.866;-4.222;2022-07-22T08:27:55;6.95;;;2.47;;
44428;SDS011;30134;47.866;-4.222;2022-07-22T08:30:22;6.00;;;2.40;;
44428;SDS011;30134;47.866;-4.222;2022-07-22T08:32:48;5.50;;;2.63;;
44428;SDS011;30134;47.866;-4.222;2022-07-22T08:35:15;17.02;;;9.68;;
44428;SDS011;30134;47.866;-4.222;2022-07-22T08:37:41;17.13;;;11.00;;
44428;SDS011;30134;47.866;-4.222;2022-07-22T08:40:07;12.55;;;9.02;;
44428;SDS011;30134;47.866;-4.222;2022-07-22T08:42:40;10.20;;;6.47;;
44428;SDS011;30134;47.866;-4.222;2022-07-22T08:45:09;11.88;;;4.82;;
44428;SDS011;30134;47.866;-4.222;2022-07-22T08:47:36;8.98;;;4.82;;
44428;SDS011;30134;47.866;-4.222;2022-07-22T08:50:03;9.88;;;3.30;;
44428;SDS011;30134;47.866;-4.222;2022-07-22T08:52:30;8.48;;;3.10;;
44428;SDS011;30134;47.866;-4.222;2022-07-22T08:54:57;3.67;;;2.45;;
44428;SDS011;30134;47.866;-4.222;2022-07-22T08:57:23;6.13;;;2.30;;
44428;SDS011;30134;47.866;-4.222;2022-07-22T08:59:50;8.27;;;2.60;;
44428;SDS011;30134;47.866;-4.222;2022-07-22T09:02:18;5.88;;;2.45;;
44428;SDS011;30134;47.866;-4.222;2022-07-22T09:04:59;4.82;;;1.80;;
44428;SDS011;30134;47.866;-4.222;2022-07-22T09:07:30;16.60;;;2.60;;
44428;SDS011;30134;47.866;-4.222;2022-07-22T09:09:59;5.50;;;2.08;;
44428;SDS011;30134;47.866;-4.222;2022-07-22T09:12:27;5.45;;;1.90;;
44428;SDS011;30134;47.866;-4.222;2022-07-22T09:14:55;3.05;;;1.60;;
44428;SDS011;30134;47.866;-4.222;2022-07-22T09:17:31;4.55;;;1.60;;
44428;SDS011;30134;47.866;-4.222;2022-07-22T09:20:04;5.72;;;1.52;;
44428;SDS011;30134;47.866;-4.222;2022-07-22T09:22:43;4.18;;;1.73;;
44428;SDS011;30134;47.866;-4.222;2022-07-22T09:27:49;3.00;;;1.42;;
44428;SDS011;30134;47.866;-4.222;2022-07-22T09:30:18;4.70;;;1.58;;
44428;SDS011;30134;47.866;-4.222;2022-07-22T09:32:49;5.10;;;1.40;;
44428;SDS011;30134;47.866;-4.222;2022-07-22T09:35:19;6.00;;;1.60;;
44428;SDS011;30134;47.866;-4.222;2022-07-22T09:37:49;4.22;;;1.30;;
44428;SDS011;30134;47.866;-4.222;2022-07-22T09:40:22;3.53;;;1.30;;
44428;SDS011;30134;47.866;-4.222;2022-07-22T09:42:52;3.65;;;1.40;;
44428;SDS011;30134;47.866;-4.222;2022-07-22T09:45:22;1.95;;;1.23;;
44428;SDS011;30134;47.866;-4.222;2022-07-22T09:47:53;3.13;;;1.05;;
44428;SDS011;30134;47.866;-4.222;2022-07-22T09:50:22;4.70;;;1.33;;
44428;SDS011;30134;47.866;-4.222;2022-07-22T09:52:55;6.30;;;1.70;;
44428;SDS011;30134;47.866;-4.222;2022-07-22T09:55:25;2.92;;;1.73;;
44428;SDS011;30134;47.866;-4.222;2022-07-22T09:57:56;3.55;;;1.20;;
44428;SDS011;30134;47.866;-4.222;2022-07-22T10:00:23;3.97;;;1.52;;
44428;SDS011;30134;47.866;-4.222;2022-07-22T10:05:25;9.38;;;1.85;;
44428;SDS011;30134;47.866;-4.222;2022-07-22T10:07:54;4.40;;;1.73;;
44428;SDS011;30134;47.866;-4.222;2022-07-22T10:10:25;8.15;;;1.80;;
44428;SDS011;30134;47.866;-4.222;2022-07-22T10:12:54;4.40;;;1.67;;
44428;SDS011;30134;47.866;-4.222;2022-07-22T10:15:24;4.57;;;1.50;;
44428;SDS011;30134;47.866;-4.222;2022-07-22T10:17:58;7.88;;;2.35;;
44428;SDS011;30134;47.866;-4.222;2022-07-22T10:20:29;12.88;;;7.63;;
44428;SDS011;30134;47.866;-4.222;2022-07-22T10:22:58;120.45;;;84.68;;
44428;SDS011;30134;47.866;-4.222;2022-07-22T10:25:31;127.32;;;91.68;;
44428;SDS011;30134;47.866;-4.222;2022-07-22T10:31:17;48.75;;;36.50;;
44428;SDS011;30134;47.866;-4.222;2022-07-22T10:33:52;31.88;;;23.75;;
44428;SDS011;30134;47.866;-4.222;2022-07-22T10:36:30;27.35;;;17.63;;
44428;SDS011;30134;47.866;-4.222;2022-07-22T10:39:11;15.80;;;12.35;;
44428;SDS011;30134;47.866;-4.222;2022-07-22T10:41:42;14.88;;;10.25;;
44428;SDS011;30134;47.866;-4.222;2022-07-22T10:44:10;17.40;;;9.43;;
44428;SDS011;30134;47.866;-4.222;2022-07-22T10:46:50;12.65;;;8.93;;
44428;SDS011;30134;47.866;-4.222;2022-07-22T10:49:24;8.88;;;6.40;;
44428;SDS011;30134;47.866;-4.222;2022-07-22T10:55:21;11.52;;;6.47;;
44428;SDS011;30134;47.866;-4.222;2022-07-22T10:57:44;11.30;;;5.55;;
44428;SDS011;30134;47.866;-4.222;2022-07-22T11:00:17;8.73;;;5.40;;
44428;SDS011;30134;47.866;-4.222;2022-07-22T11:02:44;9.00;;;6.00;;
44428;SDS011;30134;47.866;-4.222;2022-07-22T11:05:11;7.88;;;5.35;;
44428;SDS011;30134;47.866;-4.222;2022-07-22T11:07:42;10.73;;;5.88;;
44428;SDS011;30134;47.866;-4.222;2022-07-22T11:10:13;9.05;;;5.40;;
44428;SDS011;30134;47.866;-4.222;2022-07-22T11:12:41;8.15;;;4.68;;
44428;SDS011;30134;47.866;-4.222;2022-07-22T11:15:08;8.02;;;4.63;;
44428;SDS011;30134;47.866;-4.222;2022-07-22T11:17:35;7.07;;;4.10;;
44428;SDS011;30134;47.866;-4.222;2022-07-22T11:20:11;5.95;;;3.65;;
44428;SDS011;30134;47.866;-4.222;2022-07-22T11:22:39;5.03;;;3.33;;
44428;SDS011;30134;47.866;-4.222;2022-07-22T11:25:07;6.50;;;3.47;;
44428;SDS011;30134;47.866;-4.222;2022-07-22T11:27:35;5.32;;;3.15;;
44428;SDS011;30134;47.866;-4.222;2022-07-22T11:30:01;4.13;;;2.40;;
44428;SDS011;30134;47.866;-4.222;2022-07-22T11:32:31;5.32;;;2.78;;
44428;SDS011;30134;47.866;-4.222;2022-07-22T11:34:58;4.55;;;2.63;;
44428;SDS011;30134;47.866;-4.222;2022-07-22T11:37:25;7.03;;;2.85;;
44428;SDS011;30134;47.866;-4.222;2022-07-22T11:39:59;3.67;;;2.50;;
44428;SDS011;30134;47.866;-4.222;2022-07-22T11:42:29;5.20;;;2.40;;
44428;SDS011;30134;47.866;-4.222;2022-07-22T11:44:55;6.50;;;3.67;;
44428;SDS011;30134;47.866;-4.222;2022-07-22T11:47:21;5.85;;;3.63;;
44428;SDS011;30134;47.866;-4.222;2022-07-22T11:49:49;5.43;;;3.22;;
44428;SDS011;30134;47.866;-4.222;2022-07-22T11:52:15;6.40;;;3.70;;
44428;SDS011;30134;47.866;-4.222;2022-07-22T11:54:42;5.72;;;3.83;;
44428;SDS011;30134;47.866;-4.222;2022-07-22T11:57:10;8.98;;;3.28;;
44428;SDS011;30134;47.866;-4.222;2022-07-22T11:59:37;5.70;;;3.20;;
44428;SDS011;30134;47.866;-4.222;2022-07-22T12:02:03;6.55;;;3.40;;
44428;SDS011;30134;47.866;-4.222;2022-07-22T12:04:34;5.80;;;3.33;;
44428;SDS011;30134;47.866;-4.222;2022-07-22T12:07:01;5.10;;;3.35;;
44428;SDS011;30134;47.866;-4.222;2022-07-22T12:09:30;4.53;;;3.10;;
44428;SDS011;30134;47.866;-4.222;2022-07-22T12:12:01;4.78;;;2.70;;
44428;SDS011;30134;47.866;-4.222;2022-07-22T12:14:29;4.60;;;2.67;;
44428;SDS011;30134;47.866;-4.222;2022-07-22T12:17:04;5.65;;;2.67;;
44428;SDS011;30134;47.866;-4.222;2022-07-22T12:19:36;4.32;;;3.00;;
44428;SDS011;30134;47.866;-4.222;2022-07-22T12:22:12;4.07;;;2.50;;
44428;SDS011;30134;47.866;-4.222;2022-07-22T12:24:46;4.53;;;2.63;;
44428;SDS011;30134;47.866;-4.222;2022-07-22T12:27:27;6.35;;;2.88;;
44428;SDS011;30134;47.866;-4.222;2022-07-22T12:29:53;8.82;;;3.15;;
44428;SDS011;30134;47.866;-4.222;2022-07-22T12:37:25;3.40;;;2.28;;
44428;SDS011;30134;47.866;-4.222;2022-07-22T12:40:01;4.70;;;2.50;;
44428;SDS011;30134;47.866;-4.222;2022-07-22T12:43:02;4.18;;;2.40;;
44428;SDS011;30134;47.866;-4.222;2022-07-22T12:45:31;3.95;;;2.50;;
44428;SDS011;30134;47.866;-4.222;2022-07-22T12:51:13;4.43;;;2.47;;
44428;SDS011;30134;47.866;-4.222;2022-07-22T12:53:18;4.95;;;2.40;;
44428;SDS011;30134;47.866;-4.222;2022-07-22T12:55:48;3.97;;;2.20;;
44428;SDS011;30134;47.866;-4.222;2022-07-22T12:58:26;3.50;;;2.20;;
44428;SDS011;30134;47.866;-4.222;2022-07-22T13:00:55;3.80;;;2.30;;
44428;SDS011;30134;47.866;-4.222;2022-07-22T13:03:23;5.68;;;2.60;;
44428;SDS011;30134;47.866;-4.222;2022-07-22T13:05:51;3.03;;;2.13;;
44428;SDS011;30134;47.866;-4.222;2022-07-22T13:08:23;4.28;;;2.17;;
44428;SDS011;30134;47.866;-4.222;2022-07-22T13:10:51;5.60;;;2.20;;
44428;SDS011;30134;47.866;-4.222;2022-07-22T13:13:20;4.07;;;2.10;;
44428;SDS011;30134;47.866;-4.222;2022-07-22T13:15:47;4.63;;;2.40;;
44428;SDS011;30134;47.866;-4.222;2022-07-22T13:18:14;3.78;;;2.28;;
44428;SDS011;30134;47.866;-4.222;2022-07-22T13:20:41;3.53;;;2.05;;
44428;SDS011;30134;47.866;-4.222;2022-07-22T13:23:14;2.50;;;1.80;;
44428;SDS011;30134;47.866;-4.222;2022-07-22T13:25:40;3.40;;;2.38;;
44428;SDS011;30134;47.866;-4.222;2022-07-22T13:28:06;4.30;;;2.20;;
44428;SDS011;30134;47.866;-4.222;2022-07-22T13:30:32;3.08;;;1.83;;
44428;SDS011;30134;47.866;-4.222;2022-07-22T13:32:58;3.17;;;2.00;;
44428;SDS011;30134;47.866;-4.222;2022-07-22T13:35:24;2.15;;;1.95;;
44428;SDS011;30134;47.866;-4.222;2022-07-22T13:37:50;2.58;;;1.98;;
44428;SDS011;30134;47.866;-4.222;2022-07-22T13:40:16;3.78;;;2.53;;
44428;SDS011;30134;47.866;-4.222;2022-07-22T13:42:42;3.65;;;1.98;;
44428;SDS011;30134;47.866;-4.222;2022-07-22T13:45:08;4.80;;;1.98;;
44428;SDS011;30134;47.866;-4.222;2022-07-22T13:47:36;4.93;;;2.10;;
44428;SDS011;30134;47.866;-4.222;2022-07-22T13:50:05;2.95;;;2.00;;
44428;SDS011;30134;47.866;-4.222;2022-07-22T13:52:32;2.83;;;1.90;;
44428;SDS011;30134;47.866;-4.222;2022-07-22T13:54:59;2.50;;;1.83;;
44428;SDS011;30134;47.866;-4.222;2022-07-22T13:57:25;2.45;;;1.95;;
44428;SDS011;30134;47.866;-4.222;2022-07-22T13:59:51;2.15;;;1.80;;
44428;SDS011;30134;47.866;-4.222;2022-07-22T14:02:17;3.10;;;1.90;;
44428;SDS011;30134;47.866;-4.222;2022-07-22T14:04:43;4.03;;;2.20;;
44428;SDS011;30134;47.866;-4.222;2022-07-22T14:07:09;3.65;;;1.98;;
44428;SDS011;30134;47.866;-4.222;2022-07-22T14:09:35;4.35;;;2.13;;
44428;SDS011;30134;47.866;-4.222;2022-07-22T14:12:01;2.60;;;1.70;;
44428;SDS011;30134;47.866;-4.222;2022-07-22T14:14:27;2.83;;;1.80;;
44428;SDS011;30134;47.866;-4.222;2022-07-22T14:16:53;2.83;;;1.70;;
44428;SDS011;30134;47.866;-4.222;2022-07-22T14:19:19;3.83;;;1.95;;
44428;SDS011;30134;47.866;-4.222;2022-07-22T14:21:46;3.38;;;1.83;;
44428;SDS011;30134;47.866;-4.222;2022-07-22T14:24:19;3.03;;;1.80;;
44428;SDS011;30134;47.866;-4.222;2022-07-22T14:26:47;1.80;;;1.55;;
44428;SDS011;30134;47.866;-4.222;2022-07-22T14:29:14;2.85;;;2.00;;
44428;SDS011;30134;47.866;-4.222;2022-07-22T14:31:40;2.28;;;1.63;;
44428;SDS011;30134;47.866;-4.222;2022-07-22T14:34:06;4.07;;;1.73;;
44428;SDS011;30134;47.866;-4.222;2022-07-22T14:36:32;6.53;;;1.80;;
44428;SDS011;30134;47.866;-4.222;2022-07-22T14:38:58;2.28;;;1.60;;
44428;SDS011;30134;47.866;-4.222;2022-07-22T14:41:25;3.00;;;1.80;;
44428;SDS011;30134;47.866;-4.222;2022-07-22T14:43:51;2.00;;;1.42;;
44428;SDS011;30134;47.866;-4.222;2022-07-22T14:46:17;2.22;;;1.73;;
44428;SDS011;30134;47.866;-4.222;2022-07-22T14:48:43;2.42;;;1.65;;
44428;SDS011;30134;47.866;-4.222;2022-07-22T14:51:10;2.53;;;1.50;;
44428;SDS011;30134;47.866;-4.222;2022-07-22T14:53:36;2.33;;;1.40;;